createdAt,value
2023-03-24T00:01:24.708Z,11.53
2023-03-24T00:03:53.571Z,8.60
2023-03-24T00:06:23.103Z,12.00
2023-03-24T00:08:51.468Z,15.20
2023-03-24T00:11:21.562Z,13.67
2023-03-24T00:13:50.732Z,14.07
2023-03-24T00:16:22.100Z,13.93
2023-03-24T00:18:54.287Z,13.23
2023-03-24T00:21:24.796Z,14.70
2023-03-24T00:23:55.816Z,10.57
2023-03-24T00:26:25.943Z,8.43
2023-03-24T00:28:55.180Z,10.23
2023-03-24T00:31:24.577Z,10.70
2023-03-24T00:33:54.031Z,8.50
2023-03-24T00:36:24.555Z,8.50
2023-03-24T00:38:53.780Z,9.83
2023-03-24T00:41:22.502Z,14.50
2023-03-24T00:43:53.034Z,11.23
2023-03-24T00:46:29.193Z,8.97
2023-03-24T00:49:02.798Z,7.43
2023-03-24T00:51:35.724Z,11.40
2023-03-24T00:54:04.151Z,18.40
2023-03-24T00:56:34.313Z,16.20
2023-03-24T00:59:04.487Z,9.23
2023-03-24T01:01:36.558Z,10.07
2023-03-24T01:04:06.668Z,9.77
2023-03-24T01:06:38.248Z,10.93
2023-03-24T01:09:07.788Z,11.13
2023-03-24T01:11:40.288Z,13.60
2023-03-24T01:14:11.193Z,12.07
2023-03-24T01:16:39.903Z,17.47
2023-03-24T01:19:09.314Z,12.07
2023-03-24T01:21:38.235Z,12.13
2023-03-24T01:24:07.795Z,11.87
2023-03-24T01:26:36.426Z,10.43
2023-03-24T01:29:06.536Z,16.63
2023-03-24T01:31:36.977Z,18.63
2023-03-24T01:34:05.930Z,15.37
2023-03-24T01:36:34.203Z,14.70
2023-03-24T01:39:03.194Z,15.33
2023-03-24T01:41:35.999Z,17.37
2023-03-24T01:44:28.459Z,14.80
2023-03-24T01:46:59.293Z,16.90
2023-03-24T01:49:34.512Z,12.37
2023-03-24T01:52:06.230Z,11.93
2023-03-24T01:54:38.452Z,11.27
2023-03-24T01:57:12.471Z,14.73
2023-03-24T01:59:45.793Z,20.67
2023-03-24T02:02:18.350Z,12.17
2023-03-24T02:04:54.082Z,9.00
2023-03-24T02:07:32.957Z,13.00
2023-03-24T02:10:01.990Z,13.57
2023-03-24T02:12:31.287Z,10.90
2023-03-24T02:15:00.204Z,13.60
2023-03-24T02:17:45.014Z,18.17
2023-03-24T02:21:00.512Z,10.93
2023-03-24T02:23:55.786Z,14.87
2023-03-24T02:26:45.468Z,15.13
2023-03-24T02:29:45.685Z,10.63
2023-03-24T02:32:40.221Z,13.77
2023-03-24T02:35:32.069Z,12.43
2023-03-24T02:38:29.452Z,11.13
2023-03-24T02:41:02.361Z,17.13
2023-03-24T02:43:43.587Z,12.97
2023-03-24T02:46:20.050Z,15.97
2023-03-24T02:49:03.796Z,20.53
2023-03-24T02:51:40.177Z,18.37
2023-03-24T02:54:13.769Z,19.03
2023-03-24T02:56:48.345Z,17.53
2023-03-24T02:59:21.795Z,16.67
2023-03-24T03:01:57.811Z,21.23
2023-03-24T03:04:33.066Z,16.00
2023-03-24T03:07:09.692Z,15.23
2023-03-24T03:09:41.231Z,15.97
2023-03-24T03:12:13.929Z,23.13
2023-03-24T03:14:47.077Z,13.77
2023-03-24T03:17:19.526Z,16.33
2023-03-24T03:19:52.751Z,16.70
2023-03-24T03:22:26.896Z,15.03
2023-03-24T03:24:57.514Z,15.77
2023-03-24T03:27:31.738Z,12.97
2023-03-24T03:30:06.140Z,20.40
2023-03-24T03:32:40.434Z,24.60
2023-03-24T03:35:20.996Z,14.73
2023-03-24T03:37:57.370Z,12.90
2023-03-24T03:40:29.058Z,15.67
2023-03-24T03:43:00.786Z,18.67
2023-03-24T03:45:28.972Z,14.83
2023-03-24T03:47:57.343Z,16.53
2023-03-24T03:50:25.525Z,24.40
2023-03-24T03:52:54.147Z,17.13
2023-03-24T03:55:22.848Z,28.97
2023-03-24T03:57:51.904Z,18.77
2023-03-24T04:00:23.583Z,15.70
2023-03-24T04:03:09.152Z,20.03
2023-03-24T04:05:39.301Z,15.70
2023-03-24T04:08:18.262Z,15.73
2023-03-24T04:11:10.847Z,13.97
2023-03-24T04:13:47.246Z,19.23
2023-03-24T04:16:24.046Z,17.83
2023-03-24T04:19:03.898Z,10.23
2023-03-24T04:21:56.101Z,15.57
2023-03-24T04:24:34.938Z,20.83
2023-03-24T04:27:09.560Z,16.17
2023-03-24T04:29:46.938Z,15.00
2023-03-24T04:32:22.751Z,10.17
2023-03-24T04:35:01.554Z,13.77
2023-03-24T04:37:33.603Z,16.27
2023-03-24T04:40:08.521Z,13.13
2023-03-24T04:42:41.516Z,16.63
2023-03-24T04:45:11.053Z,13.40
2023-03-24T04:47:45.396Z,11.70
2023-03-24T04:50:15.384Z,19.40
2023-03-24T04:52:44.579Z,14.87
2023-03-24T04:55:33.518Z,14.60
2023-03-24T04:58:01.783Z,18.07
2023-03-24T05:00:31.368Z,19.47
2023-03-24T05:03:01.766Z,12.27
2023-03-24T05:05:29.937Z,15.00
2023-03-24T05:07:58.647Z,13.17
2023-03-24T05:10:26.776Z,12.73
2023-03-24T05:12:54.812Z,11.93
2023-03-24T05:15:23.027Z,16.37
2023-03-24T05:17:52.910Z,11.63
2023-03-24T05:20:23.035Z,13.57
2023-03-24T05:22:52.135Z,18.23
2023-03-24T05:25:21.320Z,12.87
2023-03-24T05:27:49.760Z,17.53
2023-03-24T05:30:20.316Z,16.47
2023-03-24T05:32:51.853Z,15.57
2023-03-24T05:35:20.476Z,9.43
2023-03-24T05:37:50.192Z,10.00
2023-03-24T05:40:18.355Z,11.87
2023-03-24T05:42:49.855Z,8.87
2023-03-24T05:45:19.284Z,12.90
2023-03-24T05:47:52.215Z,12.40
2023-03-24T05:50:20.797Z,18.60
2023-03-24T05:52:50.946Z,16.80
2023-03-24T05:55:19.515Z,10.60
2023-03-24T05:57:47.753Z,10.00
2023-03-24T06:00:18.092Z,10.20
2023-03-24T06:02:47.266Z,14.70
2023-03-24T06:05:15.638Z,15.43
2023-03-24T06:07:43.744Z,11.73
2023-03-24T06:10:18.577Z,13.43
2023-03-24T06:12:46.939Z,11.40
2023-03-24T06:15:17.453Z,8.90
2023-03-24T06:17:46.847Z,14.43
2023-03-24T06:20:18.504Z,12.53
2023-03-24T06:22:50.740Z,13.73
2023-03-24T06:25:24.087Z,9.23
2023-03-24T06:27:52.203Z,18.27
2023-03-24T06:30:20.992Z,14.63
2023-03-24T06:32:49.101Z,18.67
2023-03-24T06:35:20.462Z,11.00
2023-03-24T06:37:48.890Z,8.23
2023-03-24T06:40:17.888Z,12.17
2023-03-24T06:42:47.536Z,12.73
2023-03-24T06:45:15.659Z,11.27
2023-03-24T06:47:48.317Z,12.87
2023-03-24T06:50:16.463Z,17.13
2023-03-24T06:52:44.604Z,15.73
2023-03-24T06:55:13.191Z,13.03
2023-03-24T06:57:41.620Z,11.60
2023-03-24T07:00:13.686Z,14.60
2023-03-24T07:02:42.929Z,11.23
2023-03-24T07:05:12.520Z,11.80
2023-03-24T07:10:14.168Z,13.43
2023-03-24T07:12:42.344Z,13.17
2023-03-24T07:15:24.872Z,11.43
2023-03-24T07:17:53.113Z,14.97
2023-03-24T07:20:24.724Z,13.33
2023-03-24T07:22:56.434Z,12.43
2023-03-24T07:25:26.582Z,11.10
2023-03-24T07:27:56.028Z,10.30
2023-03-24T07:30:39.943Z,12.47
2023-03-24T07:33:12.469Z,14.50
2023-03-24T07:35:41.199Z,16.03
2023-03-24T07:38:10.248Z,12.73
2023-03-24T07:40:38.412Z,15.30
2023-03-24T07:43:07.100Z,12.00
2023-03-24T07:45:37.065Z,15.90
2023-03-24T07:48:05.383Z,15.83
2023-03-24T07:50:33.962Z,12.27
2023-03-24T07:53:02.216Z,9.33
2023-03-24T07:55:30.218Z,13.93
2023-03-24T07:57:58.700Z,10.43
2023-03-24T08:00:26.992Z,13.43
2023-03-24T08:02:56.589Z,10.70
2023-03-24T08:05:25.359Z,13.23
2023-03-24T08:07:55.935Z,12.57
2023-03-24T08:10:27.258Z,11.23
2023-03-24T08:12:56.044Z,17.53
2023-03-24T08:15:24.938Z,8.13
2023-03-24T08:17:53.176Z,10.27
2023-03-24T08:20:24.985Z,10.43
2023-03-24T08:22:54.254Z,8.97
2023-03-24T08:25:24.467Z,9.77
2023-03-24T08:27:53.308Z,9.63
2023-03-24T08:30:23.371Z,11.17
2023-03-24T08:32:53.221Z,10.87
2023-03-24T08:35:25.118Z,9.00
2023-03-24T08:37:53.313Z,12.27
2023-03-24T08:40:24.525Z,13.60
2023-03-24T08:42:55.424Z,10.27
2023-03-24T08:45:27.637Z,8.20
2023-03-24T08:47:57.015Z,11.67
2023-03-24T08:50:30.050Z,9.93
2023-03-24T08:52:58.950Z,9.17
2023-03-24T08:55:27.147Z,14.37
2023-03-24T08:57:56.092Z,12.00
2023-03-24T09:00:24.982Z,11.63
2023-03-24T09:02:55.029Z,11.30
2023-03-24T09:05:40.947Z,9.97
2023-03-24T09:08:14.888Z,9.47
2023-03-24T09:10:46.978Z,9.83
2023-03-24T09:13:15.424Z,8.07
2023-03-24T09:15:48.017Z,9.83
2023-03-24T09:18:17.333Z,12.47
2023-03-24T09:20:47.182Z,9.40
2023-03-24T09:23:17.268Z,8.90
2023-03-24T09:25:45.635Z,12.23
2023-03-24T09:28:15.010Z,8.97
2023-03-24T09:30:44.843Z,9.77
2023-03-24T09:33:13.500Z,11.13
2023-03-24T09:35:56.009Z,9.37
2023-03-24T09:38:27.241Z,8.47
2023-03-24T09:40:58.047Z,11.57
2023-03-24T09:43:33.570Z,11.77
2023-03-24T09:46:05.848Z,9.47
2023-03-24T09:48:38.022Z,7.37
2023-03-24T09:51:11.027Z,11.93
2023-03-24T09:53:46.451Z,10.73
2023-03-24T09:56:17.177Z,10.33
2023-03-24T09:58:50.543Z,9.23
2023-03-24T10:01:19.073Z,8.50
2023-03-24T10:03:47.995Z,8.30
2023-03-24T10:06:30.263Z,10.30
2023-03-24T10:09:17.082Z,7.70
2023-03-24T10:11:51.013Z,10.13
2023-03-24T10:14:36.545Z,5.77
2023-03-24T10:17:11.341Z,6.10
2023-03-24T10:19:48.275Z,6.17
2023-03-24T10:22:23.652Z,10.30
2023-03-24T10:25:00.972Z,5.53
2023-03-24T10:27:33.996Z,6.27
2023-03-24T10:30:08.234Z,7.43
2023-03-24T10:32:38.144Z,3.50
2023-03-24T10:35:10.305Z,7.17
2023-03-24T10:37:39.637Z,6.73
2023-03-24T10:40:18.562Z,5.83
2023-03-24T10:42:49.924Z,6.70
2023-03-24T10:45:38.177Z,4.80
2023-03-24T10:48:08.033Z,4.20
2023-03-24T10:50:38.468Z,8.13
2023-03-24T10:53:10.245Z,3.60
2023-03-24T10:55:43.533Z,5.03
2023-03-24T10:58:18.858Z,4.93
2023-03-24T11:00:48.022Z,4.80
2023-03-24T11:03:18.924Z,4.70
2023-03-24T11:05:47.861Z,4.83
2023-03-24T11:08:47.022Z,4.83
2023-03-24T11:11:32.020Z,5.57
2023-03-24T11:14:02.573Z,5.20
2023-03-24T11:16:32.591Z,4.70
2023-03-24T11:19:02.784Z,3.80
2023-03-24T11:21:39.864Z,4.20
2023-03-24T11:24:13.567Z,5.90
2023-03-24T11:26:47.486Z,4.03
2023-03-24T11:29:19.979Z,5.20
2023-03-24T11:31:57.451Z,4.30
2023-03-24T11:34:34.585Z,3.37
2023-03-24T11:37:04.999Z,4.27
2023-03-24T11:40:07.661Z,3.67
2023-03-24T11:42:45.979Z,3.23
2023-03-24T11:45:28.482Z,4.40
2023-03-24T11:47:59.816Z,2.20
2023-03-24T11:50:33.408Z,3.87
2023-03-24T11:53:07.802Z,2.77
2023-03-24T11:56:01.836Z,2.33
2023-03-24T11:58:38.084Z,3.70
2023-03-24T12:01:12.196Z,3.10
2023-03-24T12:03:57.147Z,4.80
2023-03-24T12:06:41.334Z,3.70
2023-03-24T12:09:21.802Z,3.03
2023-03-24T12:12:08.461Z,3.20
2023-03-24T12:14:51.999Z,2.27
2023-03-24T12:17:24.742Z,4.33
2023-03-24T12:20:10.769Z,2.53
2023-03-24T12:22:49.181Z,3.50
2023-03-24T12:25:32.521Z,2.13
2023-03-24T12:28:14.466Z,2.80
2023-03-24T12:30:53.774Z,3.23
2023-03-24T12:33:38.519Z,2.03
2023-03-24T12:36:31.995Z,2.20
2023-03-24T12:39:11.840Z,2.13
2023-03-24T12:42:03.685Z,3.53
2023-03-24T12:45:00.177Z,3.30
2023-03-24T12:47:48.056Z,2.27
2023-03-24T12:50:28.083Z,2.30
2023-03-24T12:53:09.185Z,2.40
2023-03-24T12:55:44.715Z,1.97
2023-03-24T12:58:20.562Z,1.80
2023-03-24T13:01:01.390Z,1.60
2023-03-24T13:03:35.493Z,1.77
2023-03-24T13:06:17.300Z,1.83
2023-03-24T13:08:53.983Z,2.00
2023-03-24T13:11:33.550Z,2.00
2023-03-24T13:14:06.381Z,1.67
2023-03-24T13:16:38.174Z,1.80
2023-03-24T13:19:19.122Z,2.10
2023-03-24T13:21:47.966Z,1.80
2023-03-24T13:24:16.598Z,1.80
2023-03-24T13:26:54.529Z,2.40
2023-03-24T13:29:58.905Z,1.73
2023-03-24T13:32:37.431Z,1.83
2023-03-24T13:35:16.156Z,1.73
2023-03-24T13:37:53.242Z,1.80
2023-03-24T13:40:29.399Z,2.00
2023-03-24T13:43:00.601Z,1.73
2023-03-24T13:45:41.563Z,2.33
2023-03-24T13:48:34.227Z,2.17
2023-03-24T13:51:17.632Z,1.70
2023-03-24T13:53:51.181Z,2.37
2023-03-24T13:56:29.604Z,1.20
2023-03-24T13:59:11.349Z,0.90
2023-03-24T14:01:41.044Z,0.77
2023-03-24T14:04:29.347Z,1.57
2023-03-24T14:07:00.422Z,0.70
2023-03-24T14:09:33.010Z,0.50
2023-03-24T14:12:19.279Z,0.60
2023-03-24T14:15:17.494Z,0.80
2023-03-24T14:17:48.420Z,1.70
2023-03-24T14:20:36.457Z,0.60
2023-03-24T14:23:07.167Z,0.60
2023-03-24T14:25:37.126Z,0.87
2023-03-24T14:28:19.106Z,0.83
2023-03-24T14:31:02.290Z,1.30
2023-03-24T14:33:32.088Z,0.80
2023-03-24T14:36:06.757Z,0.83
2023-03-24T14:38:38.938Z,0.80
2023-03-24T14:41:10.209Z,1.07
2023-03-24T14:43:59.267Z,0.80
2023-03-24T14:46:50.330Z,1.13
2023-03-24T14:49:28.577Z,0.80
2023-03-24T14:52:01.858Z,0.73
2023-03-24T14:54:42.361Z,0.90
2023-03-24T14:57:17.707Z,0.70
2023-03-24T14:59:52.132Z,1.00
2023-03-24T15:02:31.243Z,0.80
2023-03-24T15:05:22.630Z,0.70
2023-03-24T15:08:04.754Z,1.30
2023-03-24T15:10:39.172Z,0.70
2023-03-24T15:13:07.499Z,0.80
2023-03-24T15:15:53.943Z,1.30
2023-03-24T15:18:23.304Z,0.87
2023-03-24T15:20:52.006Z,0.77
2023-03-24T15:23:22.682Z,0.83
2023-03-24T15:25:54.498Z,0.97
2023-03-24T15:28:27.487Z,0.73
2023-03-24T15:30:59.274Z,0.80
2023-03-24T15:33:31.130Z,0.77
2023-03-24T15:36:01.260Z,1.63
2023-03-24T15:38:31.959Z,0.87
2023-03-24T15:41:06.996Z,0.73
2023-03-24T15:43:44.794Z,0.80
2023-03-24T15:46:24.566Z,0.80
2023-03-24T15:49:01.403Z,0.70
2023-03-24T15:51:49.326Z,2.47
2023-03-24T15:54:26.142Z,0.70
2023-03-24T15:57:17.374Z,2.07
2023-03-24T15:59:50.657Z,0.87
2023-03-24T16:02:43.568Z,1.33
2023-03-24T16:05:19.743Z,0.70
2023-03-24T16:07:59.196Z,0.70
2023-03-24T16:10:37.384Z,1.47
2023-03-24T16:13:15.691Z,0.60
2023-03-24T16:15:46.107Z,1.03
2023-03-24T16:18:18.788Z,1.70
2023-03-24T16:20:47.087Z,0.90
2023-03-24T16:23:15.694Z,0.70
2023-03-24T16:25:43.686Z,1.17
2023-03-24T16:28:14.894Z,2.73
2023-03-24T16:30:46.147Z,0.93
2023-03-24T16:33:15.223Z,0.90
2023-03-24T16:35:43.381Z,0.90
2023-03-24T16:38:14.082Z,0.60
2023-03-24T16:40:46.590Z,0.80
2023-03-24T16:43:16.875Z,1.13
2023-03-24T16:45:45.032Z,1.00
2023-03-24T16:48:13.553Z,1.03
2023-03-24T16:50:43.291Z,1.00
2023-03-24T16:53:11.371Z,1.87
2023-03-24T16:55:41.649Z,0.77
2023-03-24T16:58:11.859Z,0.87
2023-03-24T17:00:43.959Z,2.03
2023-03-24T17:03:13.986Z,1.77
2023-03-24T17:05:48.524Z,3.30
2023-03-24T17:08:18.637Z,2.00
2023-03-24T17:10:49.400Z,2.07
2023-03-24T17:13:19.717Z,1.47
2023-03-24T17:15:49.268Z,1.47
2023-03-24T17:18:17.923Z,3.03
2023-03-24T17:20:47.176Z,1.63
2023-03-24T17:23:19.039Z,1.73
2023-03-24T17:25:48.046Z,1.80
2023-03-24T17:28:17.069Z,1.47
2023-03-24T17:30:45.594Z,1.63
2023-03-24T17:33:16.113Z,4.10
2023-03-24T17:35:46.735Z,2.27
2023-03-24T17:38:16.668Z,1.67
2023-03-24T17:40:46.536Z,2.67
2023-03-24T17:43:16.526Z,2.97
2023-03-24T17:45:44.651Z,2.00
2023-03-24T17:48:12.742Z,0.90
2023-03-24T17:50:42.254Z,2.80
2023-03-24T17:53:13.692Z,1.63
2023-03-24T17:55:41.812Z,2.13
2023-03-24T17:58:10.182Z,1.60
2023-03-24T18:00:38.355Z,1.97
2023-03-24T18:03:06.693Z,2.43
2023-03-24T18:05:35.327Z,1.93
2023-03-24T18:08:05.910Z,1.97
2023-03-24T18:10:36.254Z,1.40
2023-03-24T18:13:07.717Z,1.87
2023-03-24T18:15:36.291Z,1.00
2023-03-24T18:18:05.039Z,1.47
2023-03-24T18:20:33.288Z,1.30
2023-03-24T18:23:01.665Z,2.33
2023-03-24T18:25:31.518Z,2.03
2023-03-24T18:28:00.249Z,1.43
2023-03-24T18:30:28.384Z,2.83
2023-03-24T18:33:01.465Z,1.53
2023-03-24T18:35:30.809Z,2.17
2023-03-24T18:37:58.952Z,1.43
2023-03-24T18:40:49.734Z,3.30
2023-03-24T18:43:18.214Z,2.53
2023-03-24T18:45:46.296Z,3.13
2023-03-24T18:48:15.774Z,3.87
2023-03-24T18:50:43.906Z,2.67
2023-03-24T18:53:13.488Z,2.10
2023-03-24T18:55:46.575Z,2.57
2023-03-24T18:58:19.577Z,3.07
2023-03-24T19:00:50.984Z,2.87
2023-03-24T19:03:21.992Z,1.93
2023-03-24T19:05:53.178Z,3.97
2023-03-24T19:08:21.781Z,5.23
2023-03-24T19:10:50.493Z,2.47
2023-03-24T19:13:20.156Z,4.47
2023-03-24T19:15:49.810Z,2.67
2023-03-24T19:18:18.172Z,3.07
2023-03-24T19:20:46.243Z,3.67
2023-03-24T19:23:14.702Z,5.63
2023-03-24T19:25:42.916Z,6.97
2023-03-24T19:28:11.147Z,6.17
2023-03-24T19:30:42.644Z,6.57
2023-03-24T19:33:13.024Z,6.87
2023-03-24T19:35:41.563Z,5.27
2023-03-24T19:38:10.941Z,4.03
2023-03-24T19:40:41.933Z,7.30
2023-03-24T19:43:12.228Z,8.13
2023-03-24T19:45:43.014Z,8.27
2023-03-24T19:48:12.442Z,6.97
2023-03-24T19:50:41.930Z,4.40
2023-03-24T19:53:10.213Z,4.40
2023-03-24T19:55:38.628Z,2.90
2023-03-24T19:58:07.472Z,7.20
2023-03-24T20:00:36.100Z,4.03
2023-03-24T20:03:06.014Z,8.23
2023-03-24T20:05:34.770Z,4.17
2023-03-24T20:08:03.014Z,8.27
2023-03-24T20:10:31.365Z,4.73
2023-03-24T20:13:08.456Z,5.90
2023-03-24T20:15:47.214Z,6.67
2023-03-24T20:18:24.444Z,5.50
2023-03-24T20:20:52.600Z,7.17
2023-03-24T20:23:20.871Z,5.73
2023-03-24T20:25:49.605Z,3.77
2023-03-24T20:28:18.787Z,5.20
2023-03-24T20:30:46.827Z,2.63
2023-03-24T20:33:17.032Z,5.70
2023-03-24T20:35:45.832Z,5.13
2023-03-24T20:38:13.870Z,4.60
2023-03-24T20:40:42.554Z,4.40
2023-03-24T20:43:12.268Z,5.03
2023-03-24T20:45:44.650Z,7.17
2023-03-24T20:48:12.865Z,4.80
2023-03-24T20:50:43.414Z,5.47
2023-03-24T20:53:11.602Z,5.17
2023-03-24T20:55:39.863Z,4.10
2023-03-24T20:58:08.541Z,6.07
2023-03-24T21:00:38.057Z,7.23
2023-03-24T21:03:06.591Z,3.57
2023-03-24T21:05:35.557Z,4.73
2023-03-24T21:08:05.497Z,3.03
2023-03-24T21:10:36.143Z,5.03
2023-03-24T21:13:04.558Z,4.97
2023-03-24T21:15:33.096Z,6.33
2023-03-24T21:18:01.230Z,2.23
2023-03-24T21:20:30.794Z,3.20
2023-03-24T21:23:03.492Z,9.60
2023-03-24T21:25:34.783Z,7.33
2023-03-24T21:28:03.401Z,7.93
2023-03-24T21:30:32.731Z,2.53
2023-03-24T21:33:01.153Z,4.87
2023-03-24T21:35:30.424Z,4.60
2023-03-24T21:37:58.554Z,3.00
2023-03-24T21:40:27.026Z,5.13
2023-03-24T21:43:04.662Z,4.33
2023-03-24T21:45:36.047Z,3.93
2023-03-24T21:48:05.898Z,2.23
2023-03-24T21:50:38.926Z,6.87
2023-03-24T21:53:14.901Z,4.83
2023-03-24T21:55:43.548Z,4.70
2023-03-24T21:58:12.991Z,5.30
2023-03-24T22:00:41.260Z,3.77
2023-03-24T22:03:09.438Z,3.50
2023-03-24T22:05:40.068Z,9.10
2023-03-24T22:08:08.509Z,6.87
2023-03-24T22:10:37.188Z,6.90
2023-03-24T22:13:05.797Z,7.97
2023-03-24T22:15:36.826Z,8.20
2023-03-24T22:18:05.496Z,6.10
2023-03-24T22:20:33.779Z,4.97
2023-03-24T22:23:03.595Z,4.30
2023-03-24T22:25:32.334Z,6.93
2023-03-24T22:28:00.505Z,5.70
2023-03-24T22:30:28.585Z,7.97
2023-03-24T22:32:58.085Z,8.13
2023-03-24T22:35:47.640Z,6.70
2023-03-24T22:38:17.426Z,6.50
2023-03-24T22:40:45.549Z,7.97
2023-03-24T22:43:14.034Z,8.10
2023-03-24T22:45:43.112Z,5.90
2023-03-24T22:48:12.838Z,9.80
2023-03-24T22:50:42.422Z,7.93
2023-03-24T22:53:10.865Z,7.40
2023-03-24T22:55:42.102Z,8.50
2023-03-24T22:58:10.928Z,11.23
2023-03-24T23:00:38.988Z,9.97
2023-03-24T23:03:07.250Z,5.83
2023-03-24T23:05:41.084Z,8.20
2023-03-24T23:08:10.168Z,11.37
2023-03-24T23:10:40.102Z,8.30
2023-03-24T23:13:08.794Z,9.57
2023-03-24T23:15:37.922Z,9.20
2023-03-24T23:18:06.766Z,8.87
2023-03-24T23:20:37.725Z,9.70
2023-03-24T23:23:06.927Z,8.90
2023-03-24T23:25:36.688Z,7.77
2023-03-24T23:28:04.836Z,8.50
2023-03-24T23:30:33.249Z,8.57
2023-03-24T23:33:02.198Z,11.60
2023-03-24T23:35:30.821Z,9.87
2023-03-24T23:38:02.363Z,12.93
2023-03-24T23:40:30.530Z,9.80
2023-03-24T23:43:00.391Z,8.30
2023-03-24T23:45:28.635Z,12.30
2023-03-24T23:47:56.877Z,8.83
2023-03-24T23:50:26.183Z,15.13
2023-03-24T23:52:54.292Z,12.60
2023-03-24T23:55:25.932Z,9.43
2023-03-24T23:57:54.786Z,9.67
